Time;durP1;ratioP1;P1;durP2;ratioP2;P2;SDS_P1;SDS_P2;PMS_P1;PMS_P2;Temp;Humidity;BMP_temperature;BMP_pressure;BME280_temperature;BME280_humidity;BME280_pressure;Samples;Min_cycle;Max_cycle;Signal;HPM_P1;HPM_P2
2023/12/16 00:01:10;;;;;;;26.33;16.53;;;5.70;95.30;;;5.09;99.75;100104.88;4999588;28;20472;-76
2023/12/16 00:03:37;;;;;;;23.60;15.77;;;5.70;95.30;;;5.24;99.61;100128.69;5020373;28;20474;-73
2023/12/16 00:06:05;;;;;;;28.07;16.10;;;5.70;95.70;;;5.22;99.58;100134.16;5017110;28;20544;-73
2023/12/16 00:08:33;;;;;;;22.27;15.53;;;5.70;95.20;;;4.99;100.00;100128.03;5024830;28;20841;-76
2023/12/16 00:11:01;;;;;;;25.23;16.53;;;5.60;95.20;;;5.19;99.86;100146.97;5018114;28;20538;-75
2023/12/16 00:13:31;;;;;;;26.73;17.50;;;5.70;95.80;;;5.26;99.45;100164.25;5015540;28;20454;-75
2023/12/16 00:15:58;;;;;;;24.90;17.37;;;5.70;96.00;;;5.29;98.94;100157.75;4996192;28;20503;-75
2023/12/16 00:18:26;;;;;;;22.10;14.80;;;5.80;95.90;;;5.23;98.93;100167.16;5006353;28;20500;-76
2023/12/16 00:20:54;;;;;;;25.40;17.20;;;5.70;95.10;;;5.13;99.35;100160.88;4997936;28;20461;-77
2023/12/16 00:23:22;;;;;;;27.10;16.97;;;5.70;95.20;;;5.10;99.53;100168.22;4997920;28;20467;-75
2023/12/16 00:25:49;;;;;;;25.17;16.73;;;5.70;95.50;;;4.88;99.27;100106.66;5004404;28;20457;-76
2023/12/16 00:28:16;;;;;;;23.60;17.17;;;5.70;95.90;;;5.25;99.23;100171.44;5009910;28;20903;-75
2023/12/16 00:30:46;;;;;;;26.17;18.67;;;5.70;95.30;;;5.37;98.50;100174.91;4995154;28;20532;-74
2023/12/16 00:33:13;;;;;;;27.10;18.80;;;5.80;95.60;;;5.22;99.18;100169.00;5010625;28;20952;-77
2023/12/16 00:35:41;;;;;;;27.03;16.27;;;5.80;95.10;;;5.20;99.44;100159.38;5007545;28;20498;-76
2023/12/16 00:38:09;;;;;;;23.27;15.53;;;5.70;95.30;;;5.21;99.17;100143.19;5024488;28;20472;-77
2023/12/16 00:40:37;;;;;;;24.10;17.30;;;5.70;95.90;;;5.30;99.01;100152.28;5001156;28;20450;-74
2023/12/16 00:43:05;;;;;;;24.80;16.30;;;5.70;95.70;;;5.26;99.02;100150.84;5019164;28;20465;-76
2023/12/16 00:45:32;;;;;;;21.33;15.33;;;5.70;95.60;;;5.30;99.39;100163.00;5000740;28;20487;-75
2023/12/16 00:48:01;;;;;;;25.20;16.63;;;5.70;95.60;;;5.28;99.47;100158.75;5021852;28;20561;-74
2023/12/16 00:50:29;;;;;;;25.03;17.00;;;5.70;95.90;;;5.24;99.68;100158.16;5002282;28;20461;-75
2023/12/16 00:52:56;;;;;;;23.70;17.00;;;5.60;95.80;;;5.19;99.54;100155.00;5012302;28;20989;-75
2023/12/16 00:55:24;;;;;;;24.53;16.20;;;5.60;96.00;;;5.05;99.79;100151.63;5003652;28;20510;-75
2023/12/16 00:57:52;;;;;;;29.20;17.50;;;5.60;95.90;;;5.00;100.00;100137.78;5018210;28;20469;-73
2023/12/16 01:00:19;;;;;;;21.90;16.10;;;5.50;96.20;;;5.25;99.24;100144.63;4997729;28;20952;-76
2023/12/16 01:02:47;;;;;;;29.93;17.90;;;5.60;96.40;;;5.27;99.28;100144.50;4996007;28;20478;-76
2023/12/16 01:05:16;;;;;;;24.17;16.50;;;5.60;96.40;;;5.10;99.89;100141.41;4996828;28;20451;-75
2023/12/16 01:07:43;;;;;;;25.37;17.80;;;5.70;95.70;;;5.14;100.00;100152.69;5020332;28;20920;-77
2023/12/16 01:10:10;;;;;;;26.57;17.30;;;5.60;95.60;;;4.84;99.84;100122.13;5016711;28;20544;-75
2023/12/16 01:12:39;;;;;;;26.77;17.10;;;5.60;95.60;;;4.99;100.00;100152.16;5001779;28;20486;-74
2023/12/16 01:15:08;;;;;;;22.23;15.83;;;5.60;95.60;;;5.01;100.00;100146.69;5026547;28;20465;-75
2023/12/16 01:17:36;;;;;;;27.73;18.87;;;5.60;96.00;;;4.94;100.00;100146.34;5022441;28;20453;-78
2023/12/16 01:20:04;;;;;;;27.80;17.33;;;5.50;96.10;;;5.06;100.00;100155.19;5022740;28;20454;-72
2023/12/16 01:22:32;;;;;;;26.23;17.00;;;5.60;96.40;;;5.05;100.00;100157.00;5040189;28;20446;-73
2023/12/16 01:25:01;;;;;;;25.63;17.10;;;5.60;96.40;;;4.95;100.00;100142.69;5030636;28;20450;-76
2023/12/16 01:27:28;;;;;;;27.10;16.93;;;5.60;96.40;;;5.12;99.55;100169.91;5015206;28;20490;-77
2023/12/16 01:29:55;;;;;;;25.37;16.00;;;5.70;95.90;;;5.04;99.82;100165.19;5019386;28;20515;-76
2023/12/16 01:32:23;;;;;;;27.57;17.90;;;5.60;95.40;;;5.06;100.00;100177.44;5017403;28;20453;-73
2023/12/16 01:34:50;;;;;;;28.43;17.57;;;5.60;95.70;;;5.04;99.64;100174.06;5023965;28;20462;-74
2023/12/16 01:37:17;;;;;;;27.90;18.53;;;5.60;96.00;;;4.97;100.00;100157.63;5001962;28;20455;-75
2023/12/16 01:39:46;;;;;;;26.37;16.67;;;5.60;95.80;;;4.96;100.00;100173.84;5024627;28;21033;-76
2023/12/16 01:42:14;;;;;;;27.70;17.40;;;5.60;95.80;;;5.01;100.00;100170.81;5015228;28;20513;-76
2023/12/16 01:44:42;;;;;;;22.70;16.00;;;5.50;96.20;;;4.98;100.00;100163.84;5015059;28;20468;-74
2023/12/16 01:47:09;;;;;;;24.27;17.70;;;5.60;96.40;;;5.00;100.00;100169.94;5018454;28;20450;-76
2023/12/16 01:49:37;;;;;;;30.13;18.00;;;5.50;96.30;;;4.88;100.00;100162.91;5021674;28;20464;-75
2023/12/16 01:52:07;;;;;;;31.10;18.90;;;5.50;96.40;;;4.68;100.00;100165.38;5006670;28;20811;-74
2023/12/16 01:54:35;;;;;;;25.90;18.23;;;5.40;96.20;;;4.45;100.00;100113.72;5019538;28;20485;-77
2023/12/16 01:57:05;;;;;;;26.77;17.57;;;5.50;97.00;;;4.61;100.00;100158.81;5020115;28;20461;-74
2023/12/16 01:59:32;;;;;;;28.10;17.10;;;5.40;96.70;;;4.57;100.00;100150.19;5020898;28;20490;-76
2023/12/16 02:02:01;;;;;;;27.03;18.30;;;5.40;97.20;;;4.63;100.00;100167.59;5024903;28;20558;-74
2023/12/16 02:04:28;;;;;;;28.80;18.10;;;5.40;97.20;;;4.82;100.00;100175.84;5000072;28;20462;-75
2023/12/16 02:06:57;;;;;;;32.30;18.87;;;5.40;97.60;;;4.71;100.00;100165.13;5023155;28;20514;-75
2023/12/16 02:09:25;;;;;;;25.50;16.57;;;5.40;97.30;;;4.78;100.00;100169.03;5004596;28;20489;-74
2023/12/16 02:11:54;;;;;;;27.90;17.83;;;5.40;97.70;;;4.72;100.00;100160.66;5007459;28;20470;-76
2023/12/16 02:14:22;;;;;;;25.07;16.53;;;5.30;97.80;;;4.77;100.00;100147.72;5020534;28;20986;-73
2023/12/16 02:16:50;;;;;;;29.30;18.60;;;5.40;98.10;;;4.84;100.00;100161.47;5020141;28;20490;-75
2023/12/16 02:19:25;;;;;;;26.77;18.13;;;5.40;97.80;;;4.82;100.00;100159.75;5017831;28;20468;-74
2023/12/16 02:21:52;;;;;;;26.53;18.07;;;5.40;97.70;;;5.01;100.00;100168.13;5019296;28;21028;-75
2023/12/16 02:24:21;;;;;;;27.70;17.87;;;5.50;98.40;;;4.93;100.00;100163.41;5020266;28;20465;-72
2023/12/16 02:26:49;;;;;;;30.63;19.67;;;5.50;97.50;;;4.97;100.00;100167.50;5021052;28;20498;-75
2023/12/16 02:29:16;;;;;;;27.77;16.40;;;5.50;97.70;;;4.98;100.00;100169.22;5013206;28;20485;-76
2023/12/16 02:31:44;;;;;;;27.50;18.30;;;5.50;97.20;;;4.98;100.00;100169.22;5000985;28;21113;-74
2023/12/16 02:34:12;;;;;;;28.03;19.10;;;5.50;97.40;;;5.05;100.00;100165.03;5016926;28;20463;-74
2023/12/16 02:36:39;;;;;;;28.00;18.33;;;5.60;97.10;;;5.06;100.00;100161.38;4998572;28;20458;-74
2023/12/16 02:39:07;;;;;;;32.07;19.23;;;5.60;96.20;;;5.15;99.54;100158.94;5002278;28;20461;-75
2023/12/16 02:41:35;;;;;;;28.90;18.40;;;5.70;96.30;;;5.09;100.00;100169.19;5004272;28;20967;-73
2023/12/16 02:44:04;;;;;;;27.83;17.47;;;5.60;96.00;;;4.96;100.00;100163.13;5001353;28;20534;-75
2023/12/16 02:46:31;;;;;;;24.83;17.00;;;5.60;96.30;;;4.76;100.00;100165.59;5014936;28;20516;-76
2023/12/16 02:48:59;;;;;;;32.70;18.53;;;5.50;96.60;;;4.86;100.00;100156.81;4999603;28;20664;-78
2023/12/16 02:51:26;;;;;;;30.63;18.37;;;5.50;96.80;;;4.70;100.00;100144.69;5007742;28;20458;-72
2023/12/16 02:53:54;;;;;;;26.70;17.13;;;5.50;96.50;;;4.82;100.00;100151.72;5014334;28;20478;-75
2023/12/16 02:56:22;;;;;;;30.33;17.80;;;5.50;97.20;;;4.71;100.00;100146.38;5020274;28;20457;-75
2023/12/16 02:58:50;;;;;;;28.67;17.80;;;5.50;96.90;;;4.72;100.00;100155.28;5003470;28;20462;-76
2023/12/16 03:01:18;;;;;;;29.30;18.20;;;5.50;97.60;;;4.71;100.00;100156.25;4995906;28;20461;-74
2023/12/16 03:03:45;;;;;;;30.13;18.70;;;5.40;97.10;;;4.67;100.00;100156.50;4996350;28;21148;-72
2023/12/16 03:06:12;;;;;;;26.23;15.40;;;5.40;97.30;;;4.68;100.00;100158.19;5014555;28;20488;-75
2023/12/16 03:08:40;;;;;;;26.50;18.30;;;5.30;97.20;;;4.72;100.00;100139.22;5012814;28;20581;-74
2023/12/16 03:11:08;;;;;;;28.20;17.57;;;5.40;98.10;;;4.66;100.00;100153.97;5020225;28;20456;-77
2023/12/16 03:13:35;;;;;;;33.03;18.60;;;5.40;97.80;;;4.49;100.00;100105.31;4981341;28;20461;-74
2023/12/16 03:16:06;;;;;;;28.57;18.00;;;5.30;97.60;;;4.67;100.00;100142.28;5011695;28;20473;-74
2023/12/16 03:18:34;;;;;;;31.30;18.47;;;5.40;97.80;;;4.75;100.00;100163.06;5004573;28;20527;-75
2023/12/16 03:21:07;;;;;;;24.80;15.90;;;5.40;97.80;;;4.62;100.00;100173.91;4999778;28;20460;-75
2023/12/16 03:23:35;;;;;;;27.93;18.20;;;5.30;97.30;;;4.61;100.00;100172.19;5000523;28;20537;-75
2023/12/16 03:26:02;;;;;;;31.50;17.47;;;5.30;97.50;;;4.65;100.00;100182.53;5011305;28;20537;-75
2023/12/16 03:28:30;;;;;;;33.83;18.47;;;5.20;98.00;;;4.68;100.00;100190.31;5012244;28;20560;-75
2023/12/16 03:30:57;;;;;;;31.90;17.90;;;5.30;98.40;;;4.75;100.00;100192.53;5013002;28;21199;-74
2023/12/16 03:33:26;;;;;;;31.20;18.37;;;5.20;98.50;;;4.72;100.00;100185.56;5022703;28;20525;-73
2023/12/16 03:35:54;;;;;;;31.67;17.83;;;5.40;98.90;;;4.74;100.00;100186.31;5008157;28;21024;-74
2023/12/16 03:38:21;;;;;;;30.87;18.53;;;5.30;98.10;;;4.75;100.00;100192.53;5011513;28;20457;-74
2023/12/16 03:40:48;;;;;;;30.57;17.63;;;5.30;97.90;;;4.75;100.00;100179.97;5013818;28;20512;-74
2023/12/16 03:43:17;;;;;;;28.10;18.30;;;5.30;98.10;;;4.77;100.00;100177.19;4999907;28;20465;-74
2023/12/16 03:45:44;;;;;;;32.20;18.30;;;5.30;98.10;;;4.78;100.00;100184.25;5018152;28;20462;-73
2023/12/16 03:48:11;;;;;;;30.83;19.03;;;5.40;97.50;;;4.77;100.00;100187.91;5007437;28;21022;-76
2023/12/16 03:50:41;;;;;;;29.73;18.60;;;5.40;96.80;;;4.77;100.00;100191.41;5018231;28;20477;-76
2023/12/16 03:53:08;;;;;;;32.53;18.27;;;5.40;97.10;;;4.74;100.00;100175.59;5017279;28;20458;-73
2023/12/16 03:55:36;;;;;;;28.50;18.07;;;5.40;96.60;;;4.75;100.00;100173.78;5015748;28;20515;-74
2023/12/16 03:58:03;;;;;;;31.00;19.13;;;5.40;97.20;;;4.70;100.00;100184.84;5009776;28;20943;-74
2023/12/16 04:00:30;;;;;;;33.07;18.83;;;5.40;96.80;;;4.62;100.00;100190.84;4992584;28;20460;-75
2023/12/16 04:02:57;;;;;;;30.33;18.47;;;5.30;96.90;;;4.66;100.00;100199.47;5011664;28;20525;-75
2023/12/16 04:05:24;;;;;;;30.93;19.87;;;5.30;97.10;;;4.79;100.00;100202.00;5014956;28;20455;-76
2023/12/16 04:07:54;;;;;;;29.87;18.13;;;5.30;97.80;;;4.76;100.00;100203.09;5005571;28;20455;-74
2023/12/16 04:10:21;;;;;;;30.90;19.63;;;5.30;97.60;;;4.79;100.00;100200.19;5011755;28;20458;-76
2023/12/16 04:12:49;;;;;;;30.40;19.43;;;5.30;97.50;;;4.78;100.00;100195.81;4999875;28;20969;-74
2023/12/16 04:15:17;;;;;;;27.97;18.27;;;5.40;97.50;;;4.76;100.00;100197.75;5015543;28;20460;-74
2023/12/16 04:17:44;;;;;;;30.93;17.90;;;5.40;96.90;;;4.69;100.00;100217.97;5016675;28;20453;-74
2023/12/16 04:20:12;;;;;;;30.93;19.63;;;5.30;96.60;;;4.72;100.00;100211.53;5018056;28;20471;-74
2023/12/16 04:22:40;;;;;;;30.93;18.93;;;5.30;97.10;;;4.73;100.00;100211.38;5015959;28;20486;-74
2023/12/16 04:25:10;;;;;;;32.13;18.87;;;5.40;97.80;;;4.81;100.00;100219.66;5015273;28;20480;-74
2023/12/16 04:27:39;;;;;;;31.70;19.70;;;5.40;97.40;;;4.82;100.00;100240.13;5016737;28;20470;-72
2023/12/16 04:30:08;;;;;;;29.70;19.47;;;5.40;97.20;;;4.79;100.00;100228.78;5011763;28;20499;-74
2023/12/16 04:32:35;;;;;;;33.73;19.63;;;5.40;97.20;;;4.84;100.00;100220.38;5015190;28;20489;-75
2023/12/16 04:35:04;;;;;;;34.90;20.00;;;5.40;97.10;;;4.86;100.00;100218.44;5015000;28;20501;-74
2023/12/16 04:37:31;;;;;;;32.60;19.73;;;5.40;96.80;;;4.78;100.00;100208.34;5007538;28;20446;-74
2023/12/16 04:39:59;;;;;;;29.53;18.27;;;5.50;96.30;;;4.91;100.00;100214.41;5014471;28;20465;-74
2023/12/16 04:42:28;;;;;;;27.10;18.30;;;5.50;96.00;;;4.89;100.00;100226.22;5014040;28;20465;-74
2023/12/16 04:44:55;;;;;;;30.20;19.80;;;5.50;95.70;;;4.71;100.00;100225.91;5001977;28;20447;-74
2023/12/16 04:47:24;;;;;;;32.40;19.60;;;5.40;95.50;;;4.63;100.00;100224.66;5013574;28;20541;-73
2023/12/16 04:49:51;;;;;;;30.30;18.17;;;5.40;96.20;;;4.57;100.00;100219.81;5009729;28;20472;-74
2023/12/16 04:52:19;;;;;;;31.63;19.50;;;5.30;96.50;;;4.66;100.00;100218.22;4998868;28;20455;-74
2023/12/16 04:54:46;;;;;;;31.30;19.67;;;5.30;97.10;;;4.68;100.00;100211.75;5012824;28;20470;-74
2023/12/16 04:57:13;;;;;;;28.30;19.10;;;5.40;97.00;;;4.68;100.00;100221.63;5015375;28;20462;-74
2023/12/16 04:59:43;;;;;;;31.87;20.30;;;5.40;96.70;;;4.70;100.00;100221.47;5002246;28;20526;-75
2023/12/16 05:02:10;;;;;;;31.63;19.27;;;5.40;96.60;;;4.72;100.00;100209.69;5019703;28;20468;-74
2023/12/16 05:04:38;;;;;;;32.77;20.07;;;5.40;96.50;;;4.60;100.00;100221.38;5000647;28;20459;-74
2023/12/16 05:07:06;;;;;;;36.20;19.00;;;5.40;96.20;;;4.62;100.00;100222.97;5020071;28;20488;-73
2023/12/16 05:09:34;;;;;;;30.40;19.43;;;5.30;96.30;;;4.71;100.00;100224.06;5006534;28;20486;-74
2023/12/16 05:12:02;;;;;;;36.87;20.57;;;5.30;96.50;;;4.74;100.00;100221.13;5028834;28;20458;-73
2023/12/16 05:14:30;;;;;;;29.53;18.70;;;5.30;96.70;;;4.79;100.00;100223.44;5019151;28;20446;-73
2023/12/16 05:17:01;;;;;;;33.57;19.87;;;5.30;97.00;;;4.67;100.00;100233.31;4999475;28;20736;-73
2023/12/16 05:19:28;;;;;;;31.30;19.37;;;5.30;96.80;;;4.72;100.00;100217.72;5019574;28;20541;-73
2023/12/16 05:21:56;;;;;;;33.40;18.80;;;5.30;97.30;;;4.85;100.00;100227.44;5017122;28;20557;-74
2023/12/16 05:24:23;;;;;;;31.07;19.40;;;5.40;96.90;;;4.72;100.00;100233.78;4992663;28;20467;-75
2023/12/16 05:26:51;;;;;;;39.53;19.77;;;5.30;96.20;;;4.71;100.00;100240.13;5001750;28;20538;-75
2023/12/16 05:29:19;;;;;;;32.17;20.10;;;5.30;96.40;;;4.77;100.00;100236.94;5014688;28;20482;-74
2023/12/16 05:31:46;;;;;;;32.50;20.30;;;5.30;97.00;;;4.67;100.00;100231.47;5018795;28;20551;-75
2023/12/16 05:34:14;;;;;;;28.97;19.37;;;5.30;96.60;;;4.58;100.00;100223.31;5015397;28;20462;-72
2023/12/16 05:36:41;;;;;;;33.30;18.80;;;5.30;97.10;;;4.72;100.00;100231.09;5009974;28;20462;-73
2023/12/16 05:39:10;;;;;;;32.00;20.70;;;5.40;97.00;;;4.76;100.00;100223.69;5024046;28;20469;-74
2023/12/16 05:41:37;;;;;;;31.63;20.07;;;5.40;96.40;;;4.72;100.00;100222.25;5016376;28;20494;-75
2023/12/16 05:44:05;;;;;;;33.03;19.30;;;5.30;95.90;;;4.75;100.00;100216.63;4999754;28;20524;-76
2023/12/16 05:46:32;;;;;;;29.93;18.60;;;5.30;96.30;;;4.77;100.00;100203.97;4996991;28;20826;-73
2023/12/16 05:49:00;;;;;;;30.80;20.20;;;5.40;96.60;;;4.82;100.00;100223.19;5009081;28;20558;-73
2023/12/16 05:51:29;;;;;;;35.03;19.80;;;5.40;96.30;;;4.80;100.00;100223.31;5017457;28;20544;-74
2023/12/16 05:53:57;;;;;;;30.83;21.00;;;5.40;96.30;;;4.89;100.00;100221.72;5021938;28;20461;-74
2023/12/16 05:56:24;;;;;;;33.70;20.77;;;5.50;95.90;;;4.63;100.00;100205.09;5018363;28;20461;-74
2023/12/16 05:58:51;;;;;;;36.23;20.67;;;5.50;95.30;;;4.72;100.00;100217.72;5006370;28;20826;-73
2023/12/16 06:01:20;;;;;;;32.17;19.67;;;5.40;95.60;;;4.72;100.00;100228.44;5020890;28;20816;-72
2023/12/16 06:03:48;;;;;;;31.13;19.53;;;5.40;95.70;;;4.71;100.00;100223.22;5020373;28;20973;-74
2023/12/16 06:06:15;;;;;;;32.13;19.77;;;5.30;95.60;;;4.70;100.00;100192.03;5009626;28;20560;-75
2023/12/16 06:08:45;;;;;;;34.23;19.97;;;5.50;96.60;;;5.25;100.00;100229.56;4995724;28;20477;-75
2023/12/16 06:11:13;;;;;;;32.10;19.90;;;5.60;98.00;;;5.33;100.00;100239.66;5014339;28;20475;-75
2023/12/16 06:13:41;;;;;;;36.13;19.60;;;5.90;99.00;;;5.53;100.00;100235.28;5022096;28;20458;-73
2023/12/16 06:16:09;;;;;;;31.97;19.73;;;6.00;99.50;;;5.64;100.00;100231.72;5010746;28;20455;-74
2023/12/16 06:18:37;;;;;;;30.07;19.20;;;6.20;98.70;;;6.12;100.00;100219.63;5018805;28;20545;-79
2023/12/16 06:21:05;;;;;;;33.80;19.40;;;6.50;99.50;;;5.86;98.45;100238.81;5003520;28;20473;-76
2023/12/16 06:23:33;;;;;;;23.40;17.20;;;6.40;95.10;;;5.82;97.59;100248.06;5014443;28;21198;-77
2023/12/16 06:26:03;;;;;;;31.60;19.10;;;6.40;94.20;;;5.91;97.44;100225.84;5015786;28;21356;-73
2023/12/16 06:28:30;;;;;;;29.50;19.30;;;6.50;94.60;;;5.74;93.95;100255.94;5002378;28;20943;-74
2023/12/16 06:30:57;;;;;;;31.03;17.37;;;6.40;92.10;;;5.55;95.87;100251.25;5018896;28;20461;-74
2023/12/16 06:33:24;;;;;;;28.83;19.10;;;6.30;92.00;;;5.35;95.32;100235.84;4999559;28;20461;-75
2023/12/16 06:35:54;;;;;;;29.03;19.00;;;6.10;91.80;;;5.22;96.56;100254.78;5017982;28;21035;-73
2023/12/16 06:38:22;;;;;;;30.63;17.90;;;5.90;91.90;;;5.05;96.42;100271.38;5014450;28;20557;-74
2023/12/16 06:40:50;;;;;;;32.07;18.27;;;5.80;92.10;;;5.06;97.16;100270.41;4994463;28;21030;-74
2023/12/16 06:43:19;;;;;;;30.70;19.17;;;5.60;92.90;;;5.01;97.17;100251.19;5020163;28;20468;-70
2023/12/16 06:45:46;;;;;;;27.40;18.20;;;5.70;93.40;;;5.11;97.74;100281.59;5000540;28;20462;-70
2023/12/16 06:48:14;;;;;;;31.97;18.23;;;5.70;93.30;;;4.97;98.20;100270.16;4995606;28;20458;-71
2023/12/16 06:50:42;;;;;;;31.70;18.03;;;5.70;93.30;;;5.06;98.42;100273.09;5013631;28;20479;-71
2023/12/16 06:53:10;;;;;;;32.17;20.13;;;5.60;93.70;;;4.96;99.00;100273.81;5016506;28;20459;-69
2023/12/16 06:55:38;;;;;;;30.97;18.37;;;5.60;93.80;;;4.90;98.53;100268.09;5000901;28;20468;-70
2023/12/16 06:58:05;;;;;;;27.20;17.77;;;5.50;94.10;;;5.02;98.02;100264.44;5016478;28;20457;-70
2023/12/16 07:00:35;;;;;;;29.33;18.60;;;5.60;94.30;;;5.15;97.37;100266.13;4995834;28;20458;-70
2023/12/16 07:03:02;;;;;;;31.20;19.00;;;5.70;93.70;;;5.19;96.33;100271.13;4992236;28;20448;-70
2023/12/16 07:05:32;;;;;;;34.47;19.57;;;5.70;93.50;;;5.15;96.52;100266.13;5010697;28;20554;-70
2023/12/16 07:08:00;;;;;;;31.47;18.57;;;5.70;93.50;;;5.18;96.58;100276.59;4999144;28;20457;-69
2023/12/16 07:10:28;;;;;;;25.47;17.03;;;5.70;93.50;;;5.09;97.26;100268.34;5008335;28;20958;-69
2023/12/16 07:12:55;;;;;;;32.33;18.47;;;5.60;93.40;;;5.08;96.93;100261.28;5006813;28;20559;-69
2023/12/16 07:15:23;;;;;;;31.10;17.77;;;5.70;93.50;;;5.22;96.48;100278.03;4990712;28;20545;-70
2023/12/16 07:17:52;;;;;;;28.77;18.67;;;5.70;93.40;;;4.99;97.73;100271.84;5017907;28;20563;-70
2023/12/16 07:20:19;;;;;;;36.97;21.73;;;5.60;93.40;;;4.98;98.24;100265.66;5012697;28;20457;-70
2023/12/16 07:22:46;;;;;;;32.33;17.90;;;5.60;93.70;;;5.08;97.46;100280.03;4997331;28;20458;-69
2023/12/16 07:25:13;;;;;;;32.67;19.70;;;5.70;93.60;;;5.20;96.19;100290.72;5015655;28;20475;-69
2023/12/16 07:27:42;;;;;;;31.40;19.20;;;5.70;93.60;;;5.20;97.06;100298.75;5017212;28;21431;-71
2023/12/16 07:30:10;;;;;;;34.10;18.67;;;5.70;93.20;;;4.98;97.46;100300.50;5022141;28;20997;-69
2023/12/16 07:32:39;;;;;;;33.83;20.00;;;5.60;93.10;;;4.98;97.60;100292.47;5010033;28;20466;-71
2023/12/16 07:35:12;;;;;;;34.50;19.60;;;5.60;93.40;;;5.09;97.25;100287.09;5022654;28;20506;-71
2023/12/16 07:37:41;;;;;;;32.30;19.10;;;5.60;93.80;;;5.24;97.21;100286.81;5001217;28;20533;-70
2023/12/16 07:40:10;;;;;;;30.53;19.67;;;5.70;93.70;;;5.32;96.33;100302.28;4995737;28;20471;-70
2023/12/16 07:42:37;;;;;;;36.00;20.20;;;5.80;93.70;;;5.24;97.14;100293.03;5010163;28;20965;-70
2023/12/16 07:45:06;;;;;;;29.60;19.23;;;5.70;93.60;;;5.32;96.54;100289.72;5012293;28;20556;-74
2023/12/16 07:47:34;;;;;;;32.07;19.40;;;5.80;93.60;;;5.26;96.79;100290.22;5015730;28;20476;-70
2023/12/16 07:50:02;;;;;;;35.17;19.43;;;5.90;93.10;;;5.12;97.40;100282.47;4997563;28;20510;-71
2023/12/16 07:52:32;;;;;;;31.30;18.03;;;5.80;92.80;;;5.22;97.44;100283.38;5005862;28;21054;-73
2023/12/16 07:54:59;;;;;;;30.93;18.80;;;5.80;93.10;;;5.45;96.71;100288.72;4998061;28;20479;-70
2023/12/16 07:57:26;;;;;;;30.93;19.23;;;5.90;93.30;;;5.46;95.00;100301.13;5001243;28;20460;-69
2023/12/16 07:59:54;;;;;;;28.77;19.13;;;6.00;92.50;;;5.44;94.38;100314.66;5001186;28;20498;-70
2023/12/16 08:02:22;;;;;;;30.63;19.23;;;6.00;92.00;;;5.51;93.77;100309.66;5018749;28;20472;-71
2023/12/16 08:04:49;;;;;;;27.50;17.60;;;6.10;91.80;;;5.54;93.97;100322.81;5012042;28;20455;-70
2023/12/16 08:07:17;;;;;;;29.10;18.13;;;6.10;91.60;;;5.68;93.51;100333.22;5000091;28;20564;-76
2023/12/16 08:09:46;;;;;;;30.30;19.23;;;6.10;91.90;;;5.62;93.16;100306.09;4996837;28;20776;-71
2023/12/16 08:12:14;;;;;;;29.43;18.20;;;6.20;91.40;;;5.66;92.89;100332.50;5014155;28;20473;-70
2023/12/16 08:14:41;;;;;;;32.50;18.40;;;6.20;91.20;;;5.62;93.51;100333.75;5018570;28;20557;-70
2023/12/16 08:17:09;;;;;;;36.33;18.37;;;6.20;91.30;;;5.53;94.04;100339.88;5014989;28;20555;-72
2023/12/16 08:19:37;;;;;;;30.27;18.30;;;6.20;91.20;;;5.47;94.21;100337.69;4998918;28;20470;-71
2023/12/16 08:22:04;;;;;;;27.97;17.83;;;6.10;91.50;;;5.43;94.31;100337.09;5011494;28;20553;-70
2023/12/16 08:24:32;;;;;;;33.27;19.10;;;6.10;91.40;;;5.48;93.99;100334.03;5016980;28;20460;-70
2023/12/16 08:27:01;;;;;;;30.60;18.03;;;6.10;91.50;;;5.60;93.46;100335.72;5014683;28;20513;-71
2023/12/16 08:29:29;;;;;;;30.33;19.13;;;6.20;91.30;;;5.70;92.84;100353.75;5009633;28;20559;-74
2023/12/16 08:31:56;;;;;;;31.37;18.87;;;6.30;91.10;;;5.76;93.24;100342.50;5011927;28;20472;-71
2023/12/16 08:34:23;;;;;;;30.23;19.03;;;6.30;91.30;;;5.95;92.47;100350.72;5011322;28;20587;-69
2023/12/16 08:36:54;;;;;;;30.93;17.77;;;6.40;91.20;;;6.16;90.19;100351.75;4998685;28;20474;-69
2023/12/16 08:39:23;;;;;;;37.97;17.83;;;6.60;90.70;;;6.16;89.76;100352.63;5001575;28;20453;-68
2023/12/16 08:41:51;;;;;;;28.57;18.27;;;6.70;90.30;;;6.26;89.80;100354.50;4981714;28;20478;-68
2023/12/16 08:44:19;;;;;;;30.17;17.70;;;6.70;90.20;;;6.33;89.79;100361.91;5019447;28;20463;-69
2023/12/16 08:46:48;;;;;;;27.57;18.00;;;6.80;90.10;;;6.22;89.16;100359.31;5015849;28;20473;-70
2023/12/16 08:49:15;;;;;;;30.20;18.20;;;6.80;89.90;;;6.48;88.04;100362.44;5003937;28;20460;-70
2023/12/16 08:51:43;;;;;;;32.03;18.43;;;6.90;89.70;;;6.52;87.14;100357.63;5012888;28;20561;-68
2023/12/16 08:54:11;;;;;;;27.83;17.33;;;7.00;88.70;;;6.61;87.12;100354.19;5011413;28;20514;-68
2023/12/16 08:56:39;;;;;;;28.50;16.90;;;7.10;88.60;;;6.44;87.63;100361.00;5020683;28;20451;-70
2023/12/16 08:59:06;;;;;;;23.67;15.50;;;7.10;88.10;;;6.55;86.41;100361.91;4998360;28;20458;-69
2023/12/16 09:01:36;;;;;;;22.47;15.13;;;7.10;87.80;;;6.19;86.63;100360.41;5002165;28;20504;-68
2023/12/16 09:04:04;;;;;;;24.40;16.67;;;6.90;87.10;;;6.17;88.02;100346.25;5001220;28;20978;-70
2023/12/16 09:06:31;;;;;;;30.37;17.13;;;6.80;87.70;;;6.29;87.96;100347.06;5017522;28;20851;-71
2023/12/16 09:09:01;;;;;;;24.40;16.33;;;6.90;88.10;;;6.40;88.05;100345.28;5015248;28;20458;-70
2023/12/16 09:11:28;;;;;;;27.03;16.97;;;6.90;88.50;;;6.67;87.18;100352.81;5026531;28;20481;-71
2023/12/16 09:13:56;;;;;;;26.20;17.23;;;7.10;88.50;;;6.70;86.58;100351.69;5011114;28;20470;-71
2023/12/16 09:16:24;;;;;;;27.97;17.57;;;7.20;87.80;;;6.88;86.28;100362.66;5019043;28;20556;-70
2023/12/16 09:18:53;;;;;;;27.97;16.90;;;7.30;87.80;;;6.89;84.02;100375.09;5018270;28;20549;-70
2023/12/16 09:21:21;;;;;;;31.27;16.47;;;7.40;86.40;;;6.89;84.54;100365.22;5016642;28;20454;-71
2023/12/16 09:23:48;;;;;;;29.47;18.23;;;7.40;86.40;;;6.84;84.86;100377.34;5013100;28;20536;-70
2023/12/16 09:26:15;;;;;;;29.27;17.37;;;7.40;86.30;;;6.95;84.55;100382.66;5017537;28;20470;-68
2023/12/16 09:28:44;;;;;;;23.90;16.30;;;7.50;86.60;;;6.96;84.33;100387.03;5000047;28;20458;-69
2023/12/16 09:31:11;;;;;;;28.37;18.30;;;7.50;86.20;;;6.87;83.62;100396.75;4998641;28;20465;-70
2023/12/16 09:33:39;;;;;;;24.50;15.60;;;7.50;85.80;;;6.75;84.39;100396.00;5016075;28;20458;-70
2023/12/16 09:36:13;;;;;;;25.80;16.00;;;7.40;85.90;;;6.59;84.71;100384.84;5016630;28;20474;-75
2023/12/16 09:38:41;;;;;;;22.90;16.40;;;7.20;85.80;;;6.55;85.17;100391.47;5022195;28;20480;-74
2023/12/16 09:41:25;;;;;;;24.40;16.17;;;7.20;86.00;;;6.73;84.26;100397.94;5004052;28;20971;-74
2023/12/16 09:43:55;;;;;;;24.83;15.33;;;7.30;86.20;;;6.51;84.81;100391.72;5003262;28;20455;-75
2023/12/16 09:46:26;;;;;;;26.20;14.47;;;7.30;85.50;;;6.74;83.72;100394.25;5015105;28;20466;-74
2023/12/16 09:48:54;;;;;;;22.83;15.37;;;7.40;85.70;;;6.77;83.42;100377.03;5001936;28;20970;-73
2023/12/16 09:51:25;;;;;;;23.27;16.37;;;7.40;85.70;;;6.70;84.29;100403.56;5004079;28;20477;-76
2023/12/16 09:53:54;;;;;;;28.30;17.20;;;7.40;85.30;;;6.95;83.82;100402.31;5016524;28;20528;-73
2023/12/16 09:56:22;;;;;;;20.80;15.00;;;7.50;85.70;;;6.75;82.87;100401.38;5017665;28;20463;-73
2023/12/16 09:58:52;;;;;;;21.60;15.10;;;7.50;85.00;;;6.89;82.24;100407.34;5001102;28;20459;-74
2023/12/16 10:01:19;;;;;;;25.93;15.47;;;7.40;85.00;;;6.85;82.90;100395.19;5020398;28;20482;-72
2023/12/16 10:03:48;;;;;;;23.40;14.60;;;7.40;85.10;;;6.94;81.99;100394.38;5019666;28;20487;-72
2023/12/16 10:06:16;;;;;;;24.10;15.10;;;7.50;84.90;;;7.03;81.61;100403.47;4998431;28;20466;-72
2023/12/16 10:08:46;;;;;;;21.63;14.67;;;7.50;84.80;;;6.50;81.47;100376.59;4993653;28;20443;-80
2023/12/16 10:11:15;;;;;;;23.33;14.30;;;7.40;84.10;;;6.72;82.33;100393.53;5020545;28;20951;-75
2023/12/16 10:13:56;;;;;;;24.93;15.43;;;7.30;84.80;;;6.77;82.48;100399.41;4994983;28;20547;-74